Tropical Cyclones
[Index]
Main Index Home Page Stock Weather Photos Extreme Storms Discussion Storm News and Storm Chasing Reports Tropical Cyclones / Hurricanes / Typhoons Weather Data and Links Wild Fires / Bushfires Weather Observation Techniques Weather Picture Catalogue Tornado Pictures and Reports Stock Video Footage and DVDs for sale
Season 1990-1991 Tropical Cyclone ERROL Track Map
Season 1990-1991 Summaries: [BoM-AU] [JTWC-AU] [JTWC-SIO] [JTWC-SPAC] [JTWC-SH]
<<- Previous TC | JTWC 1990-1991 Season | Next TC ->>

click for intensity scale information  Lat/long Grid: Show Hide

 Date Labels: Show Hide

Joint Typhoon Warning Centre Cyclone Data

Name: ERROL

24 Mar 1991 00:00 UTC to 31 Mar 1991 18:00 UTC

    date/time    lat    long     hPa   cat  kts
1991-03-24 00   10.2    99.6                  25          
1991-03-24 06   10.2    99.4                  25          
1991-03-24 12   10.2    99.3                  30          
1991-03-24 18   10.3    99.1                  35          
1991-03-25 00   10.5    99.0            1     45          
1991-03-25 06   10.5    99.3            2     65          
1991-03-25 12   10.4    99.6            3     90          
1991-03-25 18   10.5    99.9            4    110          
1991-03-26 00   10.7   100.2            4    110          
1991-03-26 06   11.0   100.6            4    110          
1991-03-26 12   11.3   101.0            4    110          
1991-03-26 18   11.8   101.3            4    110          
1991-03-27 00   12.2   101.5            4    105          
1991-03-27 06   12.6   101.7            4    100          
1991-03-27 12   13.9   101.8            3     90          
1991-03-27 18   13.3   101.7            3     80          
1991-03-28 00   13.6   101.2            2     70          
1991-03-28 06   13.9   100.7            2     60          
1991-03-28 12   14.3    99.8            2     55          
1991-03-28 18   14.6    98.8            1     50          
1991-03-29 00   15.0    97.8            1     45          
1991-03-29 06   15.3    97.0            1     40          
1991-03-29 12   15.6    96.1            1     40          
1991-03-29 18   15.8    95.3                  35          
1991-03-30 00   16.0    94.4                  35          
1991-03-30 06   16.3    93.6                  35          
1991-03-30 12   16.5    93.0                  30          
1991-03-30 18   16.7    92.3                  30          
1991-03-31 00   17.0    91.6                  30          
1991-03-31 06   17.4    91.0                  25          
1991-03-31 12   17.8    90.5                  25          
1991-03-31 18   18.2    90.2                  25          
Winds are 1-min average.

Tropical cyclone tracks developed by Michael Bath using data from the Joint Typhoon Warning Centre Best Tracks and Google Maps.


[Australian Severe Weather index] [Copyright Notice] [Email Contacts] [Search This Site] [Privacy Policy]
Document: tropical_cyclone_errol.htm Updated: 18 September 2016